sensor_id;sensor_type;location;lat;lon;timestamp;P1;durP1;ratioP1;P2;durP2;ratioP2
7324;SDS011;3703;48.016;7.802;2023-04-01T00:01:50;1.10;;;0.87;;
7324;SDS011;3703;48.016;7.802;2023-04-01T00:04:37;1.00;;;0.90;;
7324;SDS011;3703;48.016;7.802;2023-04-01T00:07:26;1.73;;;0.90;;
7324;SDS011;3703;48.016;7.802;2023-04-01T00:10:13;1.23;;;1.13;;
7324;SDS011;3703;48.016;7.802;2023-04-01T00:13:01;0.73;;;0.70;;
7324;SDS011;3703;48.016;7.802;2023-04-01T00:15:49;1.30;;;0.97;;
7324;SDS011;3703;48.016;7.802;2023-04-01T00:18:36;1.20;;;1.20;;
7324;SDS011;3703;48.016;7.802;2023-04-01T00:21:24;0.97;;;0.97;;
7324;SDS011;3703;48.016;7.802;2023-04-01T00:24:13;1.10;;;1.10;;
7324;SDS011;3703;48.016;7.802;2023-04-01T00:27:01;1.13;;;1.03;;
7324;SDS011;3703;48.016;7.802;2023-04-01T00:29:48;1.23;;;1.17;;
7324;SDS011;3703;48.016;7.802;2023-04-01T00:32:35;0.60;;;0.60;;
7324;SDS011;3703;48.016;7.802;2023-04-01T00:35:23;1.60;;;0.80;;
7324;SDS011;3703;48.016;7.802;2023-04-01T00:38:10;1.40;;;1.00;;
7324;SDS011;3703;48.016;7.802;2023-04-01T00:41:00;1.97;;;0.80;;
7324;SDS011;3703;48.016;7.802;2023-04-01T00:43:48;2.90;;;1.00;;
7324;SDS011;3703;48.016;7.802;2023-04-01T00:46:37;1.20;;;1.00;;
7324;SDS011;3703;48.016;7.802;2023-04-01T00:49:25;1.60;;;0.83;;
7324;SDS011;3703;48.016;7.802;2023-04-01T00:52:17;2.67;;;1.03;;
7324;SDS011;3703;48.016;7.802;2023-04-01T00:55:08;2.67;;;1.50;;
7324;SDS011;3703;48.016;7.802;2023-04-01T00:58:01;3.13;;;1.23;;
7324;SDS011;3703;48.016;7.802;2023-04-01T01:00:52;1.57;;;1.30;;
7324;SDS011;3703;48.016;7.802;2023-04-01T01:03:40;2.27;;;1.20;;
7324;SDS011;3703;48.016;7.802;2023-04-01T01:06:32;2.70;;;2.20;;
7324;SDS011;3703;48.016;7.802;2023-04-01T01:09:37;6.90;;;1.30;;
7324;SDS011;3703;48.016;7.802;2023-04-01T01:12:34;5.27;;;1.50;;
7324;SDS011;3703;48.016;7.802;2023-04-01T01:15:29;1.80;;;1.13;;
7324;SDS011;3703;48.016;7.802;2023-04-01T01:18:23;4.30;;;1.30;;
7324;SDS011;3703;48.016;7.802;2023-04-01T01:21:26;5.30;;;1.50;;
7324;SDS011;3703;48.016;7.802;2023-04-01T01:24:29;7.40;;;2.03;;
7324;SDS011;3703;48.016;7.802;2023-04-01T01:27:29;4.67;;;1.70;;
7324;SDS011;3703;48.016;7.802;2023-04-01T01:30:26;4.23;;;1.90;;
7324;SDS011;3703;48.016;7.802;2023-04-01T01:33:30;6.90;;;2.13;;
7324;SDS011;3703;48.016;7.802;2023-04-01T01:36:30;6.67;;;2.40;;
7324;SDS011;3703;48.016;7.802;2023-04-01T01:39:21;6.43;;;1.77;;
7324;SDS011;3703;48.016;7.802;2023-04-01T01:42:13;6.50;;;1.77;;
7324;SDS011;3703;48.016;7.802;2023-04-01T01:45:04;3.93;;;1.90;;
7324;SDS011;3703;48.016;7.802;2023-04-01T01:47:55;3.60;;;2.00;;
7324;SDS011;3703;48.016;7.802;2023-04-01T01:50:44;4.07;;;2.10;;
7324;SDS011;3703;48.016;7.802;2023-04-01T01:53:35;8.30;;;2.40;;
7324;SDS011;3703;48.016;7.802;2023-04-01T01:56:24;8.30;;;2.43;;
7324;SDS011;3703;48.016;7.802;2023-04-01T01:59:14;3.53;;;1.87;;
7324;SDS011;3703;48.016;7.802;2023-04-01T02:02:04;5.40;;;2.03;;
7324;SDS011;3703;48.016;7.802;2023-04-01T02:04:54;6.50;;;2.50;;
7324;SDS011;3703;48.016;7.802;2023-04-01T02:07:42;6.60;;;2.23;;
7324;SDS011;3703;48.016;7.802;2023-04-01T02:10:35;6.50;;;1.60;;
7324;SDS011;3703;48.016;7.802;2023-04-01T02:13:29;8.53;;;1.83;;
7324;SDS011;3703;48.016;7.802;2023-04-01T02:16:23;6.53;;;1.83;;
7324;SDS011;3703;48.016;7.802;2023-04-01T02:19:15;10.17;;;1.77;;
7324;SDS011;3703;48.016;7.802;2023-04-01T02:22:08;8.47;;;1.60;;
7324;SDS011;3703;48.016;7.802;2023-04-01T02:25:01;6.97;;;2.10;;
7324;SDS011;3703;48.016;7.802;2023-04-01T02:27:55;4.60;;;1.77;;
7324;SDS011;3703;48.016;7.802;2023-04-01T02:30:44;4.83;;;2.00;;
7324;SDS011;3703;48.016;7.802;2023-04-01T02:33:34;6.13;;;1.87;;
7324;SDS011;3703;48.016;7.802;2023-04-01T02:36:23;5.67;;;2.00;;
7324;SDS011;3703;48.016;7.802;2023-04-01T02:39:10;7.90;;;1.70;;
7324;SDS011;3703;48.016;7.802;2023-04-01T02:41:59;5.40;;;1.97;;
7324;SDS011;3703;48.016;7.802;2023-04-01T02:44:48;4.60;;;1.57;;
7324;SDS011;3703;48.016;7.802;2023-04-01T02:47:36;4.67;;;1.67;;
7324;SDS011;3703;48.016;7.802;2023-04-01T02:50:24;3.90;;;1.80;;
7324;SDS011;3703;48.016;7.802;2023-04-01T02:53:11;5.90;;;1.60;;
7324;SDS011;3703;48.016;7.802;2023-04-01T02:55:59;3.53;;;1.43;;
7324;SDS011;3703;48.016;7.802;2023-04-01T02:58:47;2.90;;;1.47;;
7324;SDS011;3703;48.016;7.802;2023-04-01T03:01:35;3.90;;;1.23;;
7324;SDS011;3703;48.016;7.802;2023-04-01T03:04:23;6.50;;;2.03;;
7324;SDS011;3703;48.016;7.802;2023-04-01T03:07:10;6.67;;;1.77;;
7324;SDS011;3703;48.016;7.802;2023-04-01T03:09:58;4.20;;;1.37;;
7324;SDS011;3703;48.016;7.802;2023-04-01T03:12:46;7.70;;;1.60;;
7324;SDS011;3703;48.016;7.802;2023-04-01T03:15:33;5.17;;;1.70;;
7324;SDS011;3703;48.016;7.802;2023-04-01T03:18:22;6.97;;;2.23;;
7324;SDS011;3703;48.016;7.802;2023-04-01T03:21:13;9.27;;;2.27;;
7324;SDS011;3703;48.016;7.802;2023-04-01T03:24:03;6.00;;;1.87;;
7324;SDS011;3703;48.016;7.802;2023-04-01T03:26:51;7.80;;;2.07;;
7324;SDS011;3703;48.016;7.802;2023-04-01T03:29:39;2.40;;;1.63;;
7324;SDS011;3703;48.016;7.802;2023-04-01T03:32:26;4.70;;;1.73;;
7324;SDS011;3703;48.016;7.802;2023-04-01T03:35:15;6.10;;;1.60;;
7324;SDS011;3703;48.016;7.802;2023-04-01T03:38:03;4.40;;;1.20;;
7324;SDS011;3703;48.016;7.802;2023-04-01T03:40:51;3.20;;;1.13;;
7324;SDS011;3703;48.016;7.802;2023-04-01T03:43:38;3.43;;;1.00;;
7324;SDS011;3703;48.016;7.802;2023-04-01T03:46:26;4.13;;;1.63;;
7324;SDS011;3703;48.016;7.802;2023-04-01T03:49:14;2.33;;;1.13;;
7324;SDS011;3703;48.016;7.802;2023-04-01T03:52:03;2.00;;;1.77;;
7324;SDS011;3703;48.016;7.802;2023-04-01T03:54:50;9.13;;;2.13;;
7324;SDS011;3703;48.016;7.802;2023-04-01T03:57:38;4.60;;;1.50;;
7324;SDS011;3703;48.016;7.802;2023-04-01T04:00:26;7.37;;;1.67;;
7324;SDS011;3703;48.016;7.802;2023-04-01T04:03:14;3.57;;;1.13;;
7324;SDS011;3703;48.016;7.802;2023-04-01T04:06:01;2.90;;;1.30;;
7324;SDS011;3703;48.016;7.802;2023-04-01T04:08:50;4.33;;;1.33;;
7324;SDS011;3703;48.016;7.802;2023-04-01T04:11:38;3.10;;;1.17;;
7324;SDS011;3703;48.016;7.802;2023-04-01T04:14:25;2.90;;;1.30;;
7324;SDS011;3703;48.016;7.802;2023-04-01T04:17:13;4.57;;;0.80;;
7324;SDS011;3703;48.016;7.802;2023-04-01T04:20:01;2.07;;;1.20;;
7324;SDS011;3703;48.016;7.802;2023-04-01T04:22:50;1.73;;;1.40;;
7324;SDS011;3703;48.016;7.802;2023-04-01T04:25:39;3.63;;;1.10;;
7324;SDS011;3703;48.016;7.802;2023-04-01T04:28:26;5.27;;;1.47;;
7324;SDS011;3703;48.016;7.802;2023-04-01T04:31:17;5.20;;;1.97;;
7324;SDS011;3703;48.016;7.802;2023-04-01T04:34:06;4.17;;;1.57;;
7324;SDS011;3703;48.016;7.802;2023-04-01T04:36:53;4.90;;;1.30;;
7324;SDS011;3703;48.016;7.802;2023-04-01T04:39:41;3.00;;;1.43;;
7324;SDS011;3703;48.016;7.802;2023-04-01T04:42:30;2.63;;;1.43;;
7324;SDS011;3703;48.016;7.802;2023-04-01T04:45:17;2.30;;;1.50;;
7324;SDS011;3703;48.016;7.802;2023-04-01T04:48:06;3.57;;;1.20;;
7324;SDS011;3703;48.016;7.802;2023-04-01T04:50:54;2.00;;;1.50;;
7324;SDS011;3703;48.016;7.802;2023-04-01T04:53:42;3.97;;;1.30;;
7324;SDS011;3703;48.016;7.802;2023-04-01T04:56:30;3.47;;;1.40;;
7324;SDS011;3703;48.016;7.802;2023-04-01T04:59:19;7.70;;;2.10;;
7324;SDS011;3703;48.016;7.802;2023-04-01T05:02:07;4.10;;;1.80;;
7324;SDS011;3703;48.016;7.802;2023-04-01T05:04:55;4.07;;;1.60;;
7324;SDS011;3703;48.016;7.802;2023-04-01T05:07:42;3.13;;;1.60;;
7324;SDS011;3703;48.016;7.802;2023-04-01T05:10:30;5.70;;;2.37;;
7324;SDS011;3703;48.016;7.802;2023-04-01T05:13:18;4.93;;;1.80;;
7324;SDS011;3703;48.016;7.802;2023-04-01T05:16:09;2.70;;;1.50;;
7324;SDS011;3703;48.016;7.802;2023-04-01T05:18:58;2.73;;;1.37;;
7324;SDS011;3703;48.016;7.802;2023-04-01T05:21:45;4.23;;;1.80;;
7324;SDS011;3703;48.016;7.802;2023-04-01T05:24:33;10.33;;;1.73;;
7324;SDS011;3703;48.016;7.802;2023-04-01T05:27:21;2.53;;;1.63;;
7324;SDS011;3703;48.016;7.802;2023-04-01T05:30:09;2.33;;;1.23;;
7324;SDS011;3703;48.016;7.802;2023-04-01T05:32:59;3.67;;;1.67;;
7324;SDS011;3703;48.016;7.802;2023-04-01T05:35:46;3.50;;;1.67;;
7324;SDS011;3703;48.016;7.802;2023-04-01T05:38:34;7.70;;;1.23;;
7324;SDS011;3703;48.016;7.802;2023-04-01T05:41:21;3.40;;;1.30;;
7324;SDS011;3703;48.016;7.802;2023-04-01T05:44:10;4.53;;;1.50;;
7324;SDS011;3703;48.016;7.802;2023-04-01T05:46:59;5.30;;;1.20;;
7324;SDS011;3703;48.016;7.802;2023-04-01T05:49:47;3.67;;;1.43;;
7324;SDS011;3703;48.016;7.802;2023-04-01T05:52:35;2.30;;;1.53;;
7324;SDS011;3703;48.016;7.802;2023-04-01T05:55:23;2.83;;;1.57;;
7324;SDS011;3703;48.016;7.802;2023-04-01T05:58:10;4.20;;;1.60;;
7324;SDS011;3703;48.016;7.802;2023-04-01T06:01:01;2.53;;;1.70;;
7324;SDS011;3703;48.016;7.802;2023-04-01T06:03:50;4.17;;;1.50;;
7324;SDS011;3703;48.016;7.802;2023-04-01T06:06:39;2.87;;;1.40;;
7324;SDS011;3703;48.016;7.802;2023-04-01T06:09:27;5.33;;;1.63;;
7324;SDS011;3703;48.016;7.802;2023-04-01T06:12:20;4.90;;;1.80;;
7324;SDS011;3703;48.016;7.802;2023-04-01T06:15:30;2.33;;;0.97;;
7324;SDS011;3703;48.016;7.802;2023-04-01T06:18:38;5.23;;;1.47;;
7324;SDS011;3703;48.016;7.802;2023-04-01T06:21:50;4.73;;;1.63;;
7324;SDS011;3703;48.016;7.802;2023-04-01T06:25:03;2.03;;;1.13;;
7324;SDS011;3703;48.016;7.802;2023-04-01T06:31:38;3.53;;;0.97;;
7324;SDS011;3703;48.016;7.802;2023-04-01T06:34:55;3.73;;;1.17;;
7324;SDS011;3703;48.016;7.802;2023-04-01T06:38:27;1.80;;;1.40;;
7324;SDS011;3703;48.016;7.802;2023-04-01T06:41:34;1.93;;;0.90;;
7324;SDS011;3703;48.016;7.802;2023-04-01T06:44:48;2.90;;;1.60;;
7324;SDS011;3703;48.016;7.802;2023-04-01T06:47:50;3.10;;;1.60;;
7324;SDS011;3703;48.016;7.802;2023-04-01T06:50:53;2.93;;;1.87;;
7324;SDS011;3703;48.016;7.802;2023-04-01T06:53:52;1.77;;;1.37;;
7324;SDS011;3703;48.016;7.802;2023-04-01T06:56:48;1.53;;;1.43;;
7324;SDS011;3703;48.016;7.802;2023-04-01T06:59:42;3.90;;;2.60;;
7324;SDS011;3703;48.016;7.802;2023-04-01T07:02:32;2.37;;;1.20;;
7324;SDS011;3703;48.016;7.802;2023-04-01T07:05:34;2.07;;;1.20;;
7324;SDS011;3703;48.016;7.802;2023-04-01T07:08:23;4.03;;;1.10;;
7324;SDS011;3703;48.016;7.802;2023-04-01T07:11:19;2.43;;;1.17;;
7324;SDS011;3703;48.016;7.802;2023-04-01T07:14:13;1.63;;;1.00;;
7324;SDS011;3703;48.016;7.802;2023-04-01T07:17:08;1.37;;;0.93;;
7324;SDS011;3703;48.016;7.802;2023-04-01T07:20:02;2.27;;;1.10;;
7324;SDS011;3703;48.016;7.802;2023-04-01T07:22:58;3.67;;;1.23;;
7324;SDS011;3703;48.016;7.802;2023-04-01T07:25:51;3.70;;;1.07;;
7324;SDS011;3703;48.016;7.802;2023-04-01T07:28:43;1.10;;;1.00;;
7324;SDS011;3703;48.016;7.802;2023-04-01T07:31:40;5.20;;;1.30;;
7324;SDS011;3703;48.016;7.802;2023-04-01T07:34:54;2.67;;;1.43;;
7324;SDS011;3703;48.016;7.802;2023-04-01T07:38:05;4.27;;;1.40;;
7324;SDS011;3703;48.016;7.802;2023-04-01T07:41:04;3.13;;;1.07;;
7324;SDS011;3703;48.016;7.802;2023-04-01T07:44:04;1.80;;;1.40;;
7324;SDS011;3703;48.016;7.802;2023-04-01T07:47:03;1.27;;;1.17;;
7324;SDS011;3703;48.016;7.802;2023-04-01T07:50:02;3.40;;;1.27;;
7324;SDS011;3703;48.016;7.802;2023-04-01T07:53:04;2.20;;;1.20;;
7324;SDS011;3703;48.016;7.802;2023-04-01T07:56:03;2.47;;;1.40;;
7324;SDS011;3703;48.016;7.802;2023-04-01T07:58:57;8.23;;;1.13;;
7324;SDS011;3703;48.016;7.802;2023-04-01T08:01:57;3.17;;;1.10;;
7324;SDS011;3703;48.016;7.802;2023-04-01T08:05:00;3.30;;;1.37;;
7324;SDS011;3703;48.016;7.802;2023-04-01T08:08:03;4.83;;;1.00;;
7324;SDS011;3703;48.016;7.802;2023-04-01T08:10:59;4.83;;;1.50;;
7324;SDS011;3703;48.016;7.802;2023-04-01T08:14:00;1.90;;;1.37;;
7324;SDS011;3703;48.016;7.802;2023-04-01T08:17:00;2.67;;;1.50;;
7324;SDS011;3703;48.016;7.802;2023-04-01T08:19:54;1.73;;;0.93;;
7324;SDS011;3703;48.016;7.802;2023-04-01T08:22:57;1.07;;;0.80;;
7324;SDS011;3703;48.016;7.802;2023-04-01T08:25:54;2.40;;;1.00;;
7324;SDS011;3703;48.016;7.802;2023-04-01T08:28:49;1.33;;;0.80;;
7324;SDS011;3703;48.016;7.802;2023-04-01T08:31:45;5.50;;;1.03;;
7324;SDS011;3703;48.016;7.802;2023-04-01T08:34:40;1.70;;;1.10;;
7324;SDS011;3703;48.016;7.802;2023-04-01T08:37:34;1.40;;;0.93;;
7324;SDS011;3703;48.016;7.802;2023-04-01T08:44:00;1.37;;;1.00;;
7324;SDS011;3703;48.016;7.802;2023-04-01T08:47:25;1.90;;;1.00;;
7324;SDS011;3703;48.016;7.802;2023-04-01T08:50:40;1.63;;;1.10;;
7324;SDS011;3703;48.016;7.802;2023-04-01T08:53:58;3.10;;;1.63;;
7324;SDS011;3703;48.016;7.802;2023-04-01T08:57:05;2.67;;;1.20;;
7324;SDS011;3703;48.016;7.802;2023-04-01T09:00:04;1.60;;;1.47;;
7324;SDS011;3703;48.016;7.802;2023-04-01T09:06:47;3.77;;;1.20;;
7324;SDS011;3703;48.016;7.802;2023-04-01T09:09:48;2.00;;;1.20;;
7324;SDS011;3703;48.016;7.802;2023-04-01T09:13:11;2.10;;;0.90;;
7324;SDS011;3703;48.016;7.802;2023-04-01T09:16:26;2.37;;;1.50;;
7324;SDS011;3703;48.016;7.802;2023-04-01T09:19:34;1.40;;;1.30;;
7324;SDS011;3703;48.016;7.802;2023-04-01T09:22:50;1.20;;;1.10;;
7324;SDS011;3703;48.016;7.802;2023-04-01T09:26:04;0.73;;;0.73;;
7324;SDS011;3703;48.016;7.802;2023-04-01T09:29:08;6.37;;;3.50;;
7324;SDS011;3703;48.016;7.802;2023-04-01T09:32:24;1.90;;;1.70;;
7324;SDS011;3703;48.016;7.802;2023-04-01T09:35:34;3.23;;;1.70;;
7324;SDS011;3703;48.016;7.802;2023-04-01T09:38:28;4.60;;;2.17;;
7324;SDS011;3703;48.016;7.802;2023-04-01T09:41:25;3.43;;;1.63;;
7324;SDS011;3703;48.016;7.802;2023-04-01T09:44:18;3.40;;;1.77;;
7324;SDS011;3703;48.016;7.802;2023-04-01T09:47:22;1.87;;;1.27;;
7324;SDS011;3703;48.016;7.802;2023-04-01T09:50:33;5.13;;;1.40;;
7324;SDS011;3703;48.016;7.802;2023-04-01T09:53:34;2.07;;;1.33;;
7324;SDS011;3703;48.016;7.802;2023-04-01T10:00:19;4.50;;;2.07;;
7324;SDS011;3703;48.016;7.802;2023-04-01T10:07:10;2.43;;;1.37;;
7324;SDS011;3703;48.016;7.802;2023-04-01T10:17:49;1.63;;;1.53;;
7324;SDS011;3703;48.016;7.802;2023-04-01T10:25:10;2.47;;;1.30;;
7324;SDS011;3703;48.016;7.802;2023-04-01T10:28:42;2.63;;;0.90;;
7324;SDS011;3703;48.016;7.802;2023-04-01T10:35:40;1.00;;;1.00;;
7324;SDS011;3703;48.016;7.802;2023-04-01T10:39:34;2.17;;;1.33;;
7324;SDS011;3703;48.016;7.802;2023-04-01T10:43:04;1.60;;;0.80;;
7324;SDS011;3703;48.016;7.802;2023-04-01T10:53:32;4.17;;;1.10;;
7324;SDS011;3703;48.016;7.802;2023-04-01T10:56:32;3.70;;;1.10;;
7324;SDS011;3703;48.016;7.802;2023-04-01T11:07:08;0.73;;;0.60;;
7324;SDS011;3703;48.016;7.802;2023-04-01T11:10:58;3.33;;;1.10;;
7324;SDS011;3703;48.016;7.802;2023-04-01T11:17:59;0.87;;;0.63;;
7324;SDS011;3703;48.016;7.802;2023-04-01T11:21:25;0.87;;;0.80;;
7324;SDS011;3703;48.016;7.802;2023-04-01T11:27:59;1.23;;;1.00;;
7324;SDS011;3703;48.016;7.802;2023-04-01T11:31:29;2.57;;;1.20;;
7324;SDS011;3703;48.016;7.802;2023-04-01T11:34:47;1.50;;;1.30;;
7324;SDS011;3703;48.016;7.802;2023-04-01T11:37:44;0.83;;;0.83;;
7324;SDS011;3703;48.016;7.802;2023-04-01T11:40:44;1.60;;;1.10;;
7324;SDS011;3703;48.016;7.802;2023-04-01T11:43:39;1.57;;;1.07;;
7324;SDS011;3703;48.016;7.802;2023-04-01T11:46:39;1.30;;;1.20;;
7324;SDS011;3703;48.016;7.802;2023-04-01T11:49:47;2.50;;;1.13;;
7324;SDS011;3703;48.016;7.802;2023-04-01T11:53:02;1.10;;;1.00;;
7324;SDS011;3703;48.016;7.802;2023-04-01T11:56:14;3.77;;;1.17;;
7324;SDS011;3703;48.016;7.802;2023-04-01T11:59:26;1.20;;;1.00;;
7324;SDS011;3703;48.016;7.802;2023-04-01T12:02:40;1.20;;;1.10;;
7324;SDS011;3703;48.016;7.802;2023-04-01T12:05:40;1.50;;;1.27;;
7324;SDS011;3703;48.016;7.802;2023-04-01T12:08:32;1.60;;;1.50;;
7324;SDS011;3703;48.016;7.802;2023-04-01T12:11:33;1.67;;;1.53;;
7324;SDS011;3703;48.016;7.802;2023-04-01T12:14:30;1.30;;;1.20;;
7324;SDS011;3703;48.016;7.802;2023-04-01T12:17:30;2.77;;;1.23;;
7324;SDS011;3703;48.016;7.802;2023-04-01T12:20:30;1.23;;;1.13;;
7324;SDS011;3703;48.016;7.802;2023-04-01T12:23:39;1.30;;;1.00;;
7324;SDS011;3703;48.016;7.802;2023-04-01T12:26:53;1.03;;;0.70;;
7324;SDS011;3703;48.016;7.802;2023-04-01T12:30:08;1.17;;;1.03;;
7324;SDS011;3703;48.016;7.802;2023-04-01T12:33:36;2.70;;;1.17;;
7324;SDS011;3703;48.016;7.802;2023-04-01T12:37:06;1.20;;;1.00;;
7324;SDS011;3703;48.016;7.802;2023-04-01T12:40:06;1.17;;;1.00;;
7324;SDS011;3703;48.016;7.802;2023-04-01T12:43:20;2.13;;;1.20;;
7324;SDS011;3703;48.016;7.802;2023-04-01T12:46:42;5.77;;;1.17;;
7324;SDS011;3703;48.016;7.802;2023-04-01T12:50:15;1.80;;;1.13;;
7324;SDS011;3703;48.016;7.802;2023-04-01T12:56:30;1.87;;;1.57;;
7324;SDS011;3703;48.016;7.802;2023-04-01T12:59:36;1.27;;;1.10;;
7324;SDS011;3703;48.016;7.802;2023-04-01T13:02:40;1.00;;;1.00;;
7324;SDS011;3703;48.016;7.802;2023-04-01T13:05:55;1.40;;;0.97;;
7324;SDS011;3703;48.016;7.802;2023-04-01T13:09:09;1.50;;;1.40;;
7324;SDS011;3703;48.016;7.802;2023-04-01T13:12:15;1.33;;;1.20;;
7324;SDS011;3703;48.016;7.802;2023-04-01T13:15:33;1.60;;;1.50;;
7324;SDS011;3703;48.016;7.802;2023-04-01T13:18:27;1.97;;;1.87;;
7324;SDS011;3703;48.016;7.802;2023-04-01T13:21:26;5.17;;;1.50;;
7324;SDS011;3703;48.016;7.802;2023-04-01T13:24:30;1.97;;;1.13;;
7324;SDS011;3703;48.016;7.802;2023-04-01T13:27:29;1.43;;;1.33;;
7324;SDS011;3703;48.016;7.802;2023-04-01T13:30:24;1.67;;;1.50;;
7324;SDS011;3703;48.016;7.802;2023-04-01T13:33:16;4.13;;;2.57;;
7324;SDS011;3703;48.016;7.802;2023-04-01T13:36:17;3.33;;;1.97;;
7324;SDS011;3703;48.016;7.802;2023-04-01T13:39:15;5.20;;;2.50;;
7324;SDS011;3703;48.016;7.802;2023-04-01T13:42:18;10.57;;;3.73;;
7324;SDS011;3703;48.016;7.802;2023-04-01T13:45:12;3.13;;;2.50;;
7324;SDS011;3703;48.016;7.802;2023-04-01T13:55:49;2.00;;;1.43;;
7324;SDS011;3703;48.016;7.802;2023-04-01T13:58:57;5.03;;;1.90;;
7324;SDS011;3703;48.016;7.802;2023-04-01T14:01:59;2.37;;;1.10;;
7324;SDS011;3703;48.016;7.802;2023-04-01T14:05:09;1.70;;;1.60;;
7324;SDS011;3703;48.016;7.802;2023-04-01T14:08:17;1.33;;;1.23;;
7324;SDS011;3703;48.016;7.802;2023-04-01T14:11:17;1.30;;;1.20;;
7324;SDS011;3703;48.016;7.802;2023-04-01T14:14:14;2.63;;;1.67;;
7324;SDS011;3703;48.016;7.802;2023-04-01T14:17:12;3.43;;;1.73;;
7324;SDS011;3703;48.016;7.802;2023-04-01T14:20:25;2.10;;;1.30;;
7324;SDS011;3703;48.016;7.802;2023-04-01T14:23:30;2.63;;;1.47;;
7324;SDS011;3703;48.016;7.802;2023-04-01T14:30:24;2.57;;;1.20;;
7324;SDS011;3703;48.016;7.802;2023-04-01T14:33:39;1.60;;;0.90;;
7324;SDS011;3703;48.016;7.802;2023-04-01T14:36:37;2.07;;;1.77;;
7324;SDS011;3703;48.016;7.802;2023-04-01T14:39:43;2.47;;;1.00;;
7324;SDS011;3703;48.016;7.802;2023-04-01T14:42:55;4.80;;;2.17;;
7324;SDS011;3703;48.016;7.802;2023-04-01T14:46:32;4.20;;;1.20;;
7324;SDS011;3703;48.016;7.802;2023-04-01T14:50:08;2.73;;;1.70;;
7324;SDS011;3703;48.016;7.802;2023-04-01T14:53:11;4.73;;;1.97;;
7324;SDS011;3703;48.016;7.802;2023-04-01T14:56:09;3.37;;;1.70;;
7324;SDS011;3703;48.016;7.802;2023-04-01T14:58:57;3.20;;;2.27;;
7324;SDS011;3703;48.016;7.802;2023-04-01T15:01:50;2.50;;;1.43;;
7324;SDS011;3703;48.016;7.802;2023-04-01T15:04:47;4.60;;;4.20;;
7324;SDS011;3703;48.016;7.802;2023-04-01T15:07:46;3.67;;;2.97;;
7324;SDS011;3703;48.016;7.802;2023-04-01T15:11:01;1.70;;;1.60;;
7324;SDS011;3703;48.016;7.802;2023-04-01T15:14:22;1.57;;;1.47;;
7324;SDS011;3703;48.016;7.802;2023-04-01T15:17:30;1.33;;;1.23;;
7324;SDS011;3703;48.016;7.802;2023-04-01T15:20:47;1.50;;;1.40;;
7324;SDS011;3703;48.016;7.802;2023-04-01T15:24:06;1.97;;;1.40;;
7324;SDS011;3703;48.016;7.802;2023-04-01T15:27:09;1.07;;;0.93;;
7324;SDS011;3703;48.016;7.802;2023-04-01T15:30:17;1.77;;;1.67;;
7324;SDS011;3703;48.016;7.802;2023-04-01T15:33:19;3.00;;;2.40;;
7324;SDS011;3703;48.016;7.802;2023-04-01T15:36:30;3.00;;;2.47;;
7324;SDS011;3703;48.016;7.802;2023-04-01T15:39:29;3.20;;;1.63;;
7324;SDS011;3703;48.016;7.802;2023-04-01T15:42:40;2.13;;;1.90;;
7324;SDS011;3703;48.016;7.802;2023-04-01T15:45:47;1.30;;;1.20;;
7324;SDS011;3703;48.016;7.802;2023-04-01T15:48:48;1.60;;;1.50;;
7324;SDS011;3703;48.016;7.802;2023-04-01T15:52:06;1.07;;;0.87;;
7324;SDS011;3703;48.016;7.802;2023-04-01T15:55:11;1.20;;;1.20;;
7324;SDS011;3703;48.016;7.802;2023-04-01T15:58:17;3.33;;;1.60;;
7324;SDS011;3703;48.016;7.802;2023-04-01T16:01:25;1.50;;;1.40;;
7324;SDS011;3703;48.016;7.802;2023-04-01T16:04:28;3.50;;;2.00;;
7324;SDS011;3703;48.016;7.802;2023-04-01T16:07:38;4.87;;;2.87;;
7324;SDS011;3703;48.016;7.802;2023-04-01T16:10:38;3.40;;;2.20;;
7324;SDS011;3703;48.016;7.802;2023-04-01T16:13:42;4.77;;;2.07;;
7324;SDS011;3703;48.016;7.802;2023-04-01T16:16:46;2.77;;;1.80;;
7324;SDS011;3703;48.016;7.802;2023-04-01T16:19:48;6.63;;;2.70;;
7324;SDS011;3703;48.016;7.802;2023-04-01T16:22:40;2.33;;;1.40;;
7324;SDS011;3703;48.016;7.802;2023-04-01T16:25:38;2.03;;;1.37;;
7324;SDS011;3703;48.016;7.802;2023-04-01T16:28:29;2.50;;;1.93;;
7324;SDS011;3703;48.016;7.802;2023-04-01T16:31:25;2.47;;;2.23;;
7324;SDS011;3703;48.016;7.802;2023-04-01T16:34:22;2.70;;;2.47;;
7324;SDS011;3703;48.016;7.802;2023-04-01T16:37:19;2.33;;;2.07;;
7324;SDS011;3703;48.016;7.802;2023-04-01T16:40:20;3.70;;;1.70;;
7324;SDS011;3703;48.016;7.802;2023-04-01T16:43:18;2.03;;;1.83;;
7324;SDS011;3703;48.016;7.802;2023-04-01T16:46:14;1.90;;;1.17;;
7324;SDS011;3703;48.016;7.802;2023-04-01T16:49:17;2.47;;;2.00;;
7324;SDS011;3703;48.016;7.802;2023-04-01T16:52:15;1.80;;;1.70;;
7324;SDS011;3703;48.016;7.802;2023-04-01T16:55:16;2.13;;;1.93;;
7324;SDS011;3703;48.016;7.802;2023-04-01T16:58:05;1.87;;;1.77;;
7324;SDS011;3703;48.016;7.802;2023-04-01T17:00:55;5.20;;;4.70;;
7324;SDS011;3703;48.016;7.802;2023-04-01T17:03:51;3.40;;;3.10;;
7324;SDS011;3703;48.016;7.802;2023-04-01T17:06:47;2.53;;;1.80;;
7324;SDS011;3703;48.016;7.802;2023-04-01T17:09:48;2.60;;;2.40;;
7324;SDS011;3703;48.016;7.802;2023-04-01T17:13:10;3.20;;;2.90;;
7324;SDS011;3703;48.016;7.802;2023-04-01T17:16:28;2.10;;;1.60;;
7324;SDS011;3703;48.016;7.802;2023-04-01T17:19:42;1.80;;;1.70;;
7324;SDS011;3703;48.016;7.802;2023-04-01T17:22:52;8.40;;;7.63;;
7324;SDS011;3703;48.016;7.802;2023-04-01T17:26:00;3.03;;;2.83;;
7324;SDS011;3703;48.016;7.802;2023-04-01T17:29:14;2.53;;;2.33;;
7324;SDS011;3703;48.016;7.802;2023-04-01T17:32:14;2.97;;;1.97;;
7324;SDS011;3703;48.016;7.802;2023-04-01T17:35:15;2.40;;;2.30;;
7324;SDS011;3703;48.016;7.802;2023-04-01T17:38:08;4.50;;;2.07;;
7324;SDS011;3703;48.016;7.802;2023-04-01T17:41:07;2.00;;;1.80;;
7324;SDS011;3703;48.016;7.802;2023-04-01T17:44:10;1.43;;;1.33;;
7324;SDS011;3703;48.016;7.802;2023-04-01T17:50:23;3.90;;;3.33;;
7324;SDS011;3703;48.016;7.802;2023-04-01T17:53:19;4.20;;;3.80;;
7324;SDS011;3703;48.016;7.802;2023-04-01T17:56:28;6.00;;;5.07;;
7324;SDS011;3703;48.016;7.802;2023-04-01T17:59:28;24.03;;;15.67;;
7324;SDS011;3703;48.016;7.802;2023-04-01T18:02:24;21.83;;;13.03;;
7324;SDS011;3703;48.016;7.802;2023-04-01T18:05:20;31.10;;;17.77;;
7324;SDS011;3703;48.016;7.802;2023-04-01T18:08:22;27.07;;;16.53;;
7324;SDS011;3703;48.016;7.802;2023-04-01T18:11:30;29.73;;;19.07;;
7324;SDS011;3703;48.016;7.802;2023-04-01T18:14:31;25.93;;;17.73;;
7324;SDS011;3703;48.016;7.802;2023-04-01T18:17:44;15.10;;;11.20;;
7324;SDS011;3703;48.016;7.802;2023-04-01T18:20:51;8.80;;;6.10;;
7324;SDS011;3703;48.016;7.802;2023-04-01T18:23:47;7.23;;;5.97;;
7324;SDS011;3703;48.016;7.802;2023-04-01T18:26:44;6.87;;;6.27;;
7324;SDS011;3703;48.016;7.802;2023-04-01T18:29:40;5.27;;;3.47;;
7324;SDS011;3703;48.016;7.802;2023-04-01T18:32:34;4.87;;;2.90;;
7324;SDS011;3703;48.016;7.802;2023-04-01T18:35:28;4.80;;;2.43;;
7324;SDS011;3703;48.016;7.802;2023-04-01T18:38:28;3.13;;;2.83;;
7324;SDS011;3703;48.016;7.802;2023-04-01T18:41:22;3.20;;;2.90;;
7324;SDS011;3703;48.016;7.802;2023-04-01T18:44:27;4.03;;;3.20;;
7324;SDS011;3703;48.016;7.802;2023-04-01T18:47:25;8.07;;;5.53;;
7324;SDS011;3703;48.016;7.802;2023-04-01T18:50:22;3.53;;;2.67;;
7324;SDS011;3703;48.016;7.802;2023-04-01T18:53:17;4.97;;;2.97;;
7324;SDS011;3703;48.016;7.802;2023-04-01T18:56:15;3.00;;;2.63;;
7324;SDS011;3703;48.016;7.802;2023-04-01T18:59:15;4.60;;;3.70;;
7324;SDS011;3703;48.016;7.802;2023-04-01T19:02:16;2.63;;;2.30;;
7324;SDS011;3703;48.016;7.802;2023-04-01T19:05:14;2.60;;;1.80;;
7324;SDS011;3703;48.016;7.802;2023-04-01T19:08:14;3.07;;;1.90;;
7324;SDS011;3703;48.016;7.802;2023-04-01T19:11:13;4.83;;;2.30;;
7324;SDS011;3703;48.016;7.802;2023-04-01T19:14:15;3.03;;;1.80;;
7324;SDS011;3703;48.016;7.802;2023-04-01T19:17:15;4.00;;;2.67;;
7324;SDS011;3703;48.016;7.802;2023-04-01T19:20:23;2.20;;;2.10;;
7324;SDS011;3703;48.016;7.802;2023-04-01T19:23:31;2.20;;;1.80;;
7324;SDS011;3703;48.016;7.802;2023-04-01T19:27:03;2.53;;;1.90;;
7324;SDS011;3703;48.016;7.802;2023-04-01T19:30:10;2.50;;;2.00;;
7324;SDS011;3703;48.016;7.802;2023-04-01T19:33:15;2.67;;;1.90;;
7324;SDS011;3703;48.016;7.802;2023-04-01T19:36:16;1.40;;;1.27;;
7324;SDS011;3703;48.016;7.802;2023-04-01T19:39:17;2.63;;;1.40;;
7324;SDS011;3703;48.016;7.802;2023-04-01T19:42:21;1.83;;;1.73;;
7324;SDS011;3703;48.016;7.802;2023-04-01T19:45:22;3.67;;;2.00;;
7324;SDS011;3703;48.016;7.802;2023-04-01T19:48:30;2.00;;;1.60;;